createdAt,value
2023-05-24T00:00:43.764Z,51.57
2023-05-24T00:03:10.943Z,51.66
2023-05-24T00:05:37.896Z,51.49
2023-05-24T00:08:07.154Z,51.53
2023-05-24T00:10:33.843Z,51.82
2023-05-24T00:13:00.756Z,51.78
2023-05-24T00:15:27.454Z,51.77
2023-05-24T00:17:54.273Z,51.87
2023-05-24T00:20:21.223Z,51.41
2023-05-24T00:22:48.224Z,51.87
2023-05-24T00:25:14.936Z,51.59
2023-05-24T00:27:41.665Z,51.36
2023-05-24T00:30:08.521Z,51.54
2023-05-24T00:32:42.663Z,51.61
2023-05-24T00:35:09.661Z,51.59
2023-05-24T00:37:37.425Z,51.75
2023-05-24T00:40:04.956Z,51.85
2023-05-24T00:42:31.985Z,51.62
2023-05-24T00:44:58.696Z,51.64
2023-05-24T00:47:25.506Z,51.73
2023-05-24T00:49:52.357Z,52.03
2023-05-24T00:52:19.206Z,52.08
2023-05-24T00:54:46.287Z,51.86
2023-05-24T00:57:16.078Z,51.93
2023-05-24T00:59:42.855Z,51.84
2023-05-24T01:02:09.659Z,52.06
2023-05-24T01:04:37.848Z,51.95
2023-05-24T01:07:23.487Z,51.57
2023-05-24T01:10:07.461Z,51.86
2023-05-24T01:12:53.773Z,51.98
2023-05-24T01:15:42.919Z,51.70
2023-05-24T01:18:30.164Z,52.19
2023-05-24T01:21:38.721Z,52.43
2023-05-24T01:24:49.224Z,52.72
2023-05-24T01:27:17.863Z,52.55
2023-05-24T01:29:44.746Z,52.46
2023-05-24T01:32:12.338Z,52.58
2023-05-24T01:34:39.718Z,52.52
2023-05-24T01:37:06.429Z,53.00
2023-05-24T01:39:33.299Z,52.46
2023-05-24T01:42:11.116Z,53.12
2023-05-24T01:44:44.770Z,53.45
2023-05-24T01:47:28.504Z,53.09
2023-05-24T01:50:02.552Z,53.75
2023-05-24T01:52:34.991Z,53.39
2023-05-24T01:55:05.035Z,53.49
2023-05-24T01:57:35.366Z,53.38
2023-05-24T02:00:03.816Z,52.88
2023-05-24T02:02:40.603Z,52.79
2023-05-24T02:05:08.055Z,52.66
2023-05-24T02:07:35.107Z,52.68
2023-05-24T02:10:02.367Z,52.11
2023-05-24T02:12:35.529Z,52.19
2023-05-24T02:15:06.113Z,52.24
2023-05-24T02:17:35.721Z,52.56
2023-05-24T02:20:04.077Z,52.82
2023-05-24T02:22:34.320Z,51.98
2023-05-24T02:25:01.381Z,52.08
2023-05-24T02:27:31.609Z,53.27
2023-05-24T02:29:58.322Z,53.27
2023-05-24T02:32:25.005Z,53.14
2023-05-24T02:34:51.853Z,52.97
2023-05-24T02:37:18.622Z,53.07
2023-05-24T02:39:45.407Z,53.32
2023-05-24T02:42:12.087Z,53.13
2023-05-24T02:44:38.796Z,53.80
2023-05-24T02:47:05.817Z,53.78
2023-05-24T02:49:32.623Z,53.72
2023-05-24T02:51:59.677Z,53.97
2023-05-24T02:54:26.476Z,54.95
2023-05-24T02:56:53.442Z,54.37
2023-05-24T02:59:20.119Z,54.50
2023-05-24T03:01:48.341Z,54.48
2023-05-24T03:04:15.352Z,54.36
2023-05-24T03:06:42.907Z,54.59
2023-05-24T03:09:09.667Z,54.88
2023-05-24T03:11:36.416Z,55.04
2023-05-24T03:14:03.180Z,54.92
2023-05-24T03:16:29.873Z,54.39
2023-05-24T03:18:56.681Z,54.38
2023-05-24T03:21:23.795Z,54.43
2023-05-24T03:23:50.770Z,54.86
2023-05-24T03:26:21.817Z,55.10
2023-05-24T03:28:50.499Z,54.85
2023-05-24T03:31:20.974Z,55.15
2023-05-24T03:33:48.465Z,55.48
2023-05-24T03:36:15.798Z,55.18
2023-05-24T03:38:42.518Z,55.52
2023-05-24T03:41:09.325Z,55.05
2023-05-24T03:43:36.130Z,55.83
2023-05-24T03:46:07.406Z,55.66
2023-05-24T03:48:34.114Z,55.27
2023-05-24T03:51:01.121Z,55.42
2023-05-24T03:53:27.932Z,55.19
2023-05-24T03:55:55.272Z,55.16
2023-05-24T03:58:22.572Z,55.11
2023-05-24T04:00:50.834Z,55.60
2023-05-24T04:03:20.110Z,55.70
2023-05-24T04:05:47.501Z,55.25
2023-05-24T04:08:15.004Z,55.25
2023-05-24T04:10:42.407Z,55.24
2023-05-24T04:13:11.521Z,55.07
2023-05-24T04:15:38.320Z,55.50
2023-05-24T04:18:05.668Z,55.68
2023-05-24T04:20:34.987Z,55.53
2023-05-24T04:23:01.816Z,55.40
2023-05-24T04:25:29.550Z,55.43
2023-05-24T04:27:57.057Z,55.54
2023-05-24T04:30:26.075Z,56.29
2023-05-24T04:32:53.814Z,55.99
2023-05-24T04:35:21.254Z,55.80
2023-05-24T04:37:50.114Z,55.66
2023-05-24T04:40:20.735Z,55.98
2023-05-24T04:42:47.424Z,56.05
2023-05-24T04:45:14.302Z,55.78
2023-05-24T04:47:41.359Z,56.75
2023-05-24T04:50:08.627Z,56.35
2023-05-24T04:52:36.453Z,57.37
2023-05-24T04:55:04.344Z,56.88
2023-05-24T04:57:32.754Z,56.63
2023-05-24T04:59:59.646Z,55.86
2023-05-24T05:02:27.148Z,56.72
2023-05-24T05:04:54.062Z,56.13
2023-05-24T05:07:20.987Z,56.45
2023-05-24T05:09:48.811Z,55.80
2023-05-24T05:12:15.575Z,56.04
2023-05-24T05:14:42.437Z,55.95
2023-05-24T05:17:09.126Z,56.55
2023-05-24T05:19:35.942Z,55.98
2023-05-24T05:22:02.653Z,54.72
2023-05-24T05:24:29.448Z,54.30
2023-05-24T05:26:56.106Z,53.77
2023-05-24T05:29:24.353Z,53.38
2023-05-24T05:31:51.444Z,53.13
2023-05-24T05:34:19.468Z,53.36
2023-05-24T05:36:46.209Z,53.51
2023-05-24T05:39:12.962Z,54.00
2023-05-24T05:41:40.493Z,54.36
2023-05-24T05:44:07.233Z,53.58
2023-05-24T05:46:33.991Z,53.58
2023-05-24T05:49:00.787Z,54.10
2023-05-24T05:51:27.500Z,53.88
2023-05-24T05:53:54.188Z,53.36
2023-05-24T05:56:21.018Z,53.98
2023-05-24T05:58:47.744Z,54.10
2023-05-24T06:01:15.946Z,53.77
2023-05-24T06:03:42.847Z,53.08
2023-05-24T06:06:09.695Z,51.99
2023-05-24T06:08:36.519Z,51.41
2023-05-24T06:11:03.506Z,50.73
2023-05-24T06:13:31.448Z,49.69
2023-05-24T06:15:58.973Z,49.42
2023-05-24T06:18:27.540Z,49.15
2023-05-24T06:20:54.221Z,49.34
2023-05-24T06:23:21.610Z,48.84
2023-05-24T06:25:48.433Z,48.89
2023-05-24T06:28:15.128Z,48.13
2023-05-24T06:30:42.106Z,47.06
2023-05-24T06:33:09.154Z,47.16
2023-05-24T06:35:35.873Z,46.43
2023-05-24T06:38:02.837Z,45.71
2023-05-24T06:40:29.493Z,45.83
2023-05-24T06:42:58.718Z,46.63
2023-05-24T06:45:25.453Z,45.16
2023-05-24T06:47:52.378Z,45.35
2023-05-24T06:50:19.442Z,44.34
2023-05-24T06:52:46.156Z,44.45
2023-05-24T06:55:12.883Z,43.98
2023-05-24T06:57:40.022Z,43.67
2023-05-24T07:00:12.151Z,44.20
2023-05-24T07:02:39.323Z,43.04
2023-05-24T07:05:12.178Z,42.21
2023-05-24T07:07:40.316Z,40.48
2023-05-24T07:10:08.224Z,40.28
2023-05-24T07:12:35.107Z,40.96
2023-05-24T07:15:01.859Z,40.43
2023-05-24T07:17:32.927Z,41.58
2023-05-24T07:20:01.578Z,40.40
2023-05-24T07:22:32.224Z,39.78
2023-05-24T07:24:58.909Z,39.70
2023-05-24T07:27:25.654Z,39.25
2023-05-24T07:29:52.333Z,39.35
2023-05-24T07:32:19.101Z,39.59
2023-05-24T07:34:45.843Z,39.71
2023-05-24T07:37:12.532Z,38.73
2023-05-24T07:39:39.251Z,39.80
2023-05-24T07:42:06.378Z,38.82
2023-05-24T07:44:33.430Z,38.87
2023-05-24T07:47:01.113Z,39.01
2023-05-24T07:49:28.597Z,38.15
2023-05-24T07:51:58.252Z,38.55
2023-05-24T07:54:25.457Z,38.78
2023-05-24T07:56:52.769Z,38.05
2023-05-24T07:59:19.529Z,38.42
2023-05-24T08:01:47.696Z,38.08
2023-05-24T08:04:14.446Z,38.42
2023-05-24T08:06:41.617Z,38.65
2023-05-24T08:09:09.423Z,39.55
2023-05-24T08:11:36.221Z,39.73
2023-05-24T08:14:03.596Z,39.17
2023-05-24T08:16:31.623Z,38.63
2023-05-24T08:18:58.435Z,37.85
2023-05-24T08:21:25.145Z,38.01
2023-05-24T08:23:51.908Z,38.40
2023-05-24T08:26:20.785Z,38.35
2023-05-24T08:28:48.499Z,38.25
2023-05-24T08:31:15.233Z,37.95
2023-05-24T08:33:42.966Z,38.64
2023-05-24T08:36:10.111Z,37.21
2023-05-24T08:38:36.829Z,37.79
2023-05-24T08:41:07.071Z,37.58
2023-05-24T08:43:34.744Z,37.58
2023-05-24T08:46:04.069Z,37.57
2023-05-24T08:48:31.580Z,38.26
2023-05-24T08:50:58.644Z,37.67
2023-05-24T08:53:26.924Z,36.86
2023-05-24T08:55:55.746Z,36.99
2023-05-24T08:58:22.596Z,36.88
2023-05-24T09:00:49.377Z,38.23
2023-05-24T09:03:17.908Z,37.79
2023-05-24T09:05:45.639Z,38.05
2023-05-24T09:08:17.843Z,37.28
2023-05-24T09:10:54.806Z,36.52
2023-05-24T09:13:23.155Z,35.33
2023-05-24T09:15:50.126Z,34.97
2023-05-24T09:18:17.092Z,35.87
2023-05-24T09:20:44.067Z,36.25
2023-05-24T09:23:12.781Z,37.01
2023-05-24T09:25:47.934Z,35.64
2023-05-24T09:28:17.515Z,35.27
2023-05-24T09:30:46.059Z,35.82
2023-05-24T09:33:13.559Z,36.36
2023-05-24T09:35:46.335Z,36.27
2023-05-24T09:38:18.733Z,35.13
2023-05-24T09:40:45.855Z,34.60
2023-05-24T09:43:12.908Z,34.49
2023-05-24T09:45:49.228Z,35.08
2023-05-24T09:48:20.480Z,35.35
2023-05-24T09:51:02.840Z,35.68
2023-05-24T09:53:30.192Z,36.84
2023-05-24T09:55:56.922Z,34.91
2023-05-24T09:58:30.952Z,35.25
2023-05-24T10:01:06.695Z,37.22
2023-05-24T10:03:34.961Z,36.68
2023-05-24T10:06:04.889Z,36.44
2023-05-24T10:08:33.508Z,38.86
2023-05-24T10:11:02.716Z,39.19
2023-05-24T10:13:29.622Z,37.96
2023-05-24T10:15:56.425Z,37.91
2023-05-24T10:18:23.123Z,37.20
2023-05-24T10:20:52.323Z,37.55
2023-05-24T10:23:21.674Z,37.36
2023-05-24T10:26:03.679Z,36.86
2023-05-24T10:28:31.514Z,35.84
2023-05-24T10:31:05.782Z,35.96
2023-05-24T10:33:36.039Z,37.54
2023-05-24T10:36:06.621Z,36.01
2023-05-24T10:38:39.614Z,36.17
2023-05-24T10:41:08.211Z,34.54
2023-05-24T10:43:36.496Z,35.05
2023-05-24T10:46:06.988Z,34.24
2023-05-24T10:48:41.137Z,33.84
2023-05-24T10:51:34.126Z,33.70
2023-05-24T10:54:27.297Z,32.92
2023-05-24T10:56:54.286Z,34.06
2023-05-24T10:59:29.646Z,33.01
2023-05-24T11:01:58.191Z,33.73
2023-05-24T11:04:25.833Z,34.00
2023-05-24T11:06:56.981Z,33.19
2023-05-24T11:09:25.055Z,33.99
2023-05-24T11:11:56.132Z,35.15
2023-05-24T11:14:25.109Z,35.72
2023-05-24T11:16:52.110Z,35.53
2023-05-24T11:19:23.622Z,37.40
2023-05-24T11:21:53.539Z,36.39
2023-05-24T11:24:22.028Z,34.09
2023-05-24T11:26:50.176Z,34.07
2023-05-24T11:29:22.362Z,33.71
2023-05-24T11:31:58.127Z,34.24
2023-05-24T11:34:27.220Z,33.23
2023-05-24T11:36:55.349Z,34.04
2023-05-24T11:39:23.709Z,33.94
2023-05-24T11:41:50.618Z,33.55
2023-05-24T11:44:21.438Z,33.11
2023-05-24T11:46:48.258Z,33.24
2023-05-24T11:49:16.480Z,33.61
2023-05-24T11:51:43.739Z,33.82
2023-05-24T11:54:11.712Z,33.82
2023-05-24T11:56:38.708Z,33.82
2023-05-24T11:59:16.305Z,33.85
2023-05-24T12:01:44.011Z,33.00
2023-05-24T12:04:11.922Z,33.71
2023-05-24T12:06:44.488Z,34.25
2023-05-24T12:09:16.620Z,34.12
2023-05-24T12:11:48.187Z,33.63
2023-05-24T12:14:20.360Z,36.50
2023-05-24T12:16:47.216Z,34.88
2023-05-24T12:19:32.325Z,36.05
2023-05-24T12:22:05.678Z,34.22
2023-05-24T12:24:32.752Z,34.91
2023-05-24T12:27:02.091Z,34.36
2023-05-24T12:29:40.326Z,34.28
2023-05-24T12:32:12.638Z,34.50
2023-05-24T12:34:45.005Z,35.04
2023-05-24T12:37:13.447Z,34.09
2023-05-24T12:39:43.043Z,34.76
2023-05-24T12:42:12.620Z,35.16
2023-05-24T12:44:40.030Z,35.50
2023-05-24T12:47:08.859Z,33.81
2023-05-24T12:49:36.663Z,34.98
2023-05-24T12:52:04.381Z,34.34
2023-05-24T12:54:31.881Z,34.08
2023-05-24T12:57:00.421Z,34.35
2023-05-24T12:59:28.445Z,33.60
2023-05-24T13:01:55.919Z,34.77
2023-05-24T13:04:26.086Z,36.07
2023-05-24T13:06:53.117Z,34.54
2023-05-24T13:09:23.050Z,35.04
2023-05-24T13:11:50.160Z,34.38
2023-05-24T13:14:18.336Z,32.93
2023-05-24T13:16:46.015Z,32.82
2023-05-24T13:19:13.115Z,33.23
2023-05-24T13:21:40.230Z,32.90
2023-05-24T13:24:07.570Z,32.20
2023-05-24T13:26:38.683Z,31.20
2023-05-24T13:31:37.953Z,31.86
2023-05-24T13:34:05.618Z,32.81
2023-05-24T13:36:33.007Z,32.57
2023-05-24T13:39:13.886Z,32.49
2023-05-24T13:41:42.161Z,32.08
2023-05-24T13:44:10.044Z,31.55
2023-05-24T13:46:37.887Z,31.37
2023-05-24T13:49:05.232Z,30.37
2023-05-24T13:51:32.936Z,30.81
2023-05-24T13:53:59.960Z,30.89
2023-05-24T13:56:32.494Z,30.54
2023-05-24T13:59:03.821Z,30.97
2023-05-24T14:01:31.940Z,29.11
2023-05-24T14:03:59.980Z,29.17
2023-05-24T14:06:26.681Z,28.37
2023-05-24T14:08:53.639Z,27.79
2023-05-24T14:11:20.412Z,27.33
2023-05-24T14:16:18.490Z,28.45
2023-05-24T14:18:45.982Z,28.65
2023-05-24T14:21:12.796Z,28.99
2023-05-24T14:23:39.616Z,29.28
2023-05-24T14:26:06.714Z,28.51
2023-05-24T14:28:33.474Z,28.75
2023-05-24T14:31:00.349Z,29.79
2023-05-24T14:33:27.182Z,28.29
2023-05-24T14:35:54.411Z,27.33
2023-05-24T14:38:23.210Z,28.20
2023-05-24T14:40:51.262Z,28.46
2023-05-24T14:43:18.226Z,28.42
2023-05-24T14:45:45.315Z,27.94
2023-05-24T14:48:12.698Z,27.90
2023-05-24T14:50:41.126Z,26.44
2023-05-24T14:53:14.030Z,25.78
2023-05-24T14:55:42.696Z,24.37
2023-05-24T14:58:11.917Z,23.63
2023-05-24T15:00:40.041Z,23.29
2023-05-24T15:03:12.324Z,23.24
2023-05-24T15:05:39.840Z,23.89
2023-05-24T15:08:07.782Z,26.11
2023-05-24T15:10:34.601Z,24.76
2023-05-24T15:13:03.771Z,24.55
2023-05-24T15:15:30.555Z,23.45
2023-05-24T15:17:59.524Z,23.97
2023-05-24T15:20:26.622Z,23.06
2023-05-24T15:22:53.598Z,20.51
2023-05-24T15:25:20.778Z,19.73
2023-05-24T15:27:48.990Z,17.79
2023-05-24T15:30:17.361Z,17.19
2023-05-24T15:32:46.082Z,17.13
2023-05-24T15:35:13.049Z,18.99
2023-05-24T15:37:40.403Z,17.41
2023-05-24T15:40:09.506Z,17.63
2023-05-24T15:42:36.517Z,20.00
2023-05-24T15:45:03.601Z,21.67
2023-05-24T15:47:36.375Z,22.31
2023-05-24T15:50:03.969Z,23.67
2023-05-24T15:52:30.925Z,24.67
2023-05-24T15:54:57.674Z,25.13
2023-05-24T15:57:24.443Z,25.52
2023-05-24T16:02:21.147Z,25.72
2023-05-24T16:04:48.541Z,26.72
2023-05-24T16:07:15.297Z,26.74
2023-05-24T16:09:42.017Z,26.35
2023-05-24T16:12:09.996Z,27.16
2023-05-24T16:14:37.980Z,27.00
2023-05-24T16:17:08.013Z,27.27
2023-05-24T16:19:34.872Z,28.02
2023-05-24T16:22:01.919Z,28.06
2023-05-24T16:24:28.802Z,29.26
2023-05-24T16:26:57.191Z,29.33
2023-05-24T16:29:24.557Z,29.07
2023-05-24T16:31:51.946Z,28.85
2023-05-24T16:34:18.854Z,29.73
2023-05-24T16:36:47.136Z,29.63
2023-05-24T16:39:14.244Z,30.14
2023-05-24T16:41:41.405Z,29.83
2023-05-24T16:44:08.271Z,30.00
2023-05-24T16:46:35.042Z,30.24
2023-05-24T16:49:03.433Z,30.73
2023-05-24T16:51:30.293Z,31.22
2023-05-24T16:53:57.276Z,31.47
2023-05-24T16:56:24.168Z,31.66
2023-05-24T16:58:51.181Z,32.18
2023-05-24T17:01:17.971Z,32.30
2023-05-24T17:03:44.941Z,32.46
2023-05-24T17:06:11.862Z,32.77
2023-05-24T17:08:38.787Z,32.76
2023-05-24T17:11:06.482Z,33.31
2023-05-24T17:13:33.547Z,32.96
2023-05-24T17:16:00.950Z,33.48
2023-05-24T17:18:28.178Z,33.12
2023-05-24T17:21:03.393Z,33.09
2023-05-24T17:23:32.198Z,33.40
2023-05-24T17:25:59.524Z,33.58
2023-05-24T17:28:29.871Z,33.52
2023-05-24T17:30:58.052Z,33.85
2023-05-24T17:33:26.861Z,34.26
2023-05-24T17:35:57.090Z,33.84
2023-05-24T17:38:24.984Z,34.16
2023-05-24T17:41:01.738Z,33.97
2023-05-24T17:43:29.508Z,33.48
2023-05-24T17:46:05.871Z,34.37
2023-05-24T17:48:33.971Z,34.41
2023-05-24T17:51:02.100Z,35.04
2023-05-24T17:53:33.553Z,34.69
2023-05-24T17:56:01.144Z,34.39
2023-05-24T17:58:30.684Z,34.36
2023-05-24T18:00:57.585Z,34.49
2023-05-24T18:03:24.343Z,35.04
2023-05-24T18:05:51.315Z,35.41
2023-05-24T18:08:19.107Z,35.17
2023-05-24T18:10:45.888Z,35.00
2023-05-24T18:13:13.120Z,34.61
2023-05-24T18:15:40.388Z,34.91
2023-05-24T18:18:07.467Z,35.73
2023-05-24T18:20:34.244Z,35.70
2023-05-24T18:23:01.066Z,36.17
2023-05-24T18:25:27.834Z,36.13
2023-05-24T18:27:54.692Z,36.22
2023-05-24T18:30:21.538Z,36.47
2023-05-24T18:33:03.551Z,36.44
2023-05-24T18:35:32.409Z,36.63
2023-05-24T18:37:59.570Z,36.88
2023-05-24T18:40:26.601Z,37.09
2023-05-24T18:42:53.524Z,37.10
2023-05-24T18:45:20.373Z,36.80
2023-05-24T18:47:47.508Z,36.80
2023-05-24T18:50:14.581Z,36.08
2023-05-24T18:52:41.343Z,34.89
2023-05-24T18:55:10.797Z,34.41
2023-05-24T18:57:38.435Z,33.89
2023-05-24T19:00:07.232Z,34.22
2023-05-24T19:02:39.554Z,34.05
2023-05-24T19:05:09.777Z,33.65
2023-05-24T19:07:36.874Z,34.46
2023-05-24T19:10:04.545Z,34.66
2023-05-24T19:12:33.068Z,34.78
2023-05-24T19:15:03.075Z,35.42
2023-05-24T19:17:35.036Z,35.23
2023-05-24T19:20:02.649Z,35.23
2023-05-24T19:22:33.747Z,34.88
2023-05-24T19:25:00.963Z,34.95
2023-05-24T19:27:28.350Z,35.08
2023-05-24T19:29:55.238Z,34.99
2023-05-24T19:32:22.355Z,35.39
2023-05-24T19:34:49.332Z,35.88
2023-05-24T19:37:17.317Z,35.79
2023-05-24T19:39:44.553Z,35.84
2023-05-24T19:42:12.226Z,36.23
2023-05-24T19:44:39.109Z,36.25
2023-05-24T19:47:06.182Z,36.39
2023-05-24T19:49:33.128Z,36.45
2023-05-24T19:52:00.212Z,36.17
2023-05-24T19:54:27.064Z,36.69
2023-05-24T19:56:55.954Z,36.85
2023-05-24T19:59:22.658Z,36.84
2023-05-24T20:01:49.666Z,36.60
2023-05-24T20:04:16.593Z,36.81
2023-05-24T20:06:43.710Z,36.79
2023-05-24T20:09:11.662Z,37.19
2023-05-24T20:11:38.657Z,37.32
2023-05-24T20:14:05.590Z,37.24
2023-05-24T20:16:32.842Z,37.45
2023-05-24T20:18:59.838Z,37.54
2023-05-24T20:21:26.828Z,37.40
2023-05-24T20:23:57.750Z,37.56
2023-05-24T20:26:25.657Z,37.73
2023-05-24T20:28:52.422Z,37.57
2023-05-24T20:31:21.568Z,38.12
2023-05-24T20:33:51.387Z,37.85
2023-05-24T20:36:18.550Z,37.96
2023-05-24T20:38:45.421Z,37.91
2023-05-24T20:41:12.232Z,37.75
2023-05-24T20:43:39.084Z,37.96
2023-05-24T20:46:06.120Z,38.26
2023-05-24T20:48:33.022Z,37.84
2023-05-24T20:50:59.927Z,37.92
2023-05-24T20:53:27.088Z,37.95
2023-05-24T20:55:53.816Z,37.79
2023-05-24T20:58:20.653Z,38.30
2023-05-24T21:00:47.446Z,37.73
2023-05-24T21:03:14.482Z,38.54
2023-05-24T21:05:41.558Z,38.21
2023-05-24T21:08:08.524Z,38.09
2023-05-24T21:10:35.488Z,38.53
2023-05-24T21:13:02.256Z,38.17
2023-05-24T21:15:31.177Z,38.25
2023-05-24T21:17:58.457Z,38.35
2023-05-24T21:20:25.597Z,38.15
2023-05-24T21:22:52.304Z,38.32
2023-05-24T21:25:19.036Z,38.38
2023-05-24T21:27:45.773Z,38.43
2023-05-24T21:30:15.064Z,38.74
2023-05-24T21:32:41.773Z,39.05
2023-05-24T21:35:08.677Z,38.61
2023-05-24T21:37:35.410Z,38.88
2023-05-24T21:40:02.155Z,38.81
2023-05-24T21:42:30.700Z,38.86
2023-05-24T21:44:57.417Z,39.07
2023-05-24T21:47:24.541Z,38.94
2023-05-24T21:49:51.949Z,39.03
2023-05-24T21:52:19.585Z,39.54
2023-05-24T21:54:46.281Z,39.85
2023-05-24T21:57:13.065Z,40.17
2023-05-24T21:59:40.242Z,39.85
2023-05-24T22:02:07.077Z,39.88
2023-05-24T22:04:33.978Z,40.17
2023-05-24T22:07:01.079Z,39.57
2023-05-24T22:09:27.853Z,40.12
2023-05-24T22:11:56.395Z,40.23
2023-05-24T22:14:23.098Z,40.33
2023-05-24T22:16:50.763Z,40.50
2023-05-24T22:19:25.316Z,40.98
2023-05-24T22:21:59.655Z,42.17
2023-05-24T22:24:27.030Z,42.17
2023-05-24T22:26:53.791Z,42.22
2023-05-24T22:29:20.570Z,42.38
2023-05-24T22:31:47.296Z,42.15
2023-05-24T22:34:14.198Z,42.16
2023-05-24T22:36:40.977Z,42.35
2023-05-24T22:39:07.906Z,42.51
2023-05-24T22:41:34.688Z,42.54
2023-05-24T22:44:01.484Z,42.53
2023-05-24T22:46:28.441Z,42.92
2023-05-24T22:48:58.078Z,43.18
2023-05-24T22:51:25.032Z,43.46
2023-05-24T22:53:52.721Z,44.03
2023-05-24T22:56:19.690Z,43.63
2023-05-24T22:58:46.480Z,44.36
2023-05-24T23:01:13.378Z,43.79
2023-05-24T23:03:40.489Z,44.55
2023-05-24T23:06:07.620Z,44.92
2023-05-24T23:08:34.496Z,45.26
2023-05-24T23:11:01.517Z,45.40
2023-05-24T23:13:33.760Z,45.53
2023-05-24T23:16:00.669Z,45.37
2023-05-24T23:18:27.811Z,45.67
2023-05-24T23:20:55.897Z,45.95
2023-05-24T23:23:24.772Z,45.56
2023-05-24T23:25:51.762Z,45.57
2023-05-24T23:28:19.187Z,46.00
2023-05-24T23:30:46.184Z,46.11
2023-05-24T23:33:12.951Z,46.41
2023-05-24T23:35:39.976Z,46.55
2023-05-24T23:38:06.826Z,46.35
2023-05-24T23:40:36.517Z,46.74
2023-05-24T23:43:04.066Z,46.88
2023-05-24T23:45:30.852Z,46.81
2023-05-24T23:47:58.537Z,46.69
2023-05-24T23:50:27.219Z,46.58
2023-05-24T23:52:55.064Z,46.59
2023-05-24T23:55:23.613Z,46.67
2023-05-24T23:57:50.667Z,46.89
